sensor_id;sensor_type;location;lat;lon;timestamp;temperature;humidity
18839;DHT22;9548;56.920;14.804;2023-01-31T00:01:19;0.80;99.90
18839;DHT22;9548;56.920;14.804;2023-01-31T00:03:47;0.80;99.90
18839;DHT22;9548;56.920;14.804;2023-01-31T00:06:19;0.90;99.90
18839;DHT22;9548;56.920;14.804;2023-01-31T00:08:47;0.90;99.90
18839;DHT22;9548;56.920;14.804;2023-01-31T00:11:15;0.90;99.90
18839;DHT22;9548;56.920;14.804;2023-01-31T00:13:43;0.90;99.90
18839;DHT22;9548;56.920;14.804;2023-01-31T00:16:13;0.80;99.90
18839;DHT22;9548;56.920;14.804;2023-01-31T00:18:40;0.80;99.90
18839;DHT22;9548;56.920;14.804;2023-01-31T00:21:09;0.90;99.90
18839;DHT22;9548;56.920;14.804;2023-01-31T00:23:36;0.90;99.90
18839;DHT22;9548;56.920;14.804;2023-01-31T00:26:11;1.00;99.90
18839;DHT22;9548;56.920;14.804;2023-01-31T00:28:39;1.00;99.90
18839;DHT22;9548;56.920;14.804;2023-01-31T00:31:07;1.00;99.90
18839;DHT22;9548;56.920;14.804;2023-01-31T00:33:36;0.90;99.90
18839;DHT22;9548;56.920;14.804;2023-01-31T00:36:04;0.80;99.90
18839;DHT22;9548;56.920;14.804;2023-01-31T00:38:32;0.80;99.90
18839;DHT22;9548;56.920;14.804;2023-01-31T00:40:59;0.90;99.90
18839;DHT22;9548;56.920;14.804;2023-01-31T00:43:26;0.90;99.90
18839;DHT22;9548;56.920;14.804;2023-01-31T00:45:53;0.90;99.90
18839;DHT22;9548;56.920;14.804;2023-01-31T00:48:20;0.80;99.90
18839;DHT22;9548;56.920;14.804;2023-01-31T00:50:48;0.80;99.90
18839;DHT22;9548;56.920;14.804;2023-01-31T00:53:15;0.70;99.90
18839;DHT22;9548;56.920;14.804;2023-01-31T00:55:48;0.70;99.90
18839;DHT22;9548;56.920;14.804;2023-01-31T00:58:15;0.70;99.90
18839;DHT22;9548;56.920;14.804;2023-01-31T01:00:41;0.70;99.90
18839;DHT22;9548;56.920;14.804;2023-01-31T01:03:08;0.80;99.90
18839;DHT22;9548;56.920;14.804;2023-01-31T01:05:35;0.80;99.90
18839;DHT22;9548;56.920;14.804;2023-01-31T01:08:04;0.70;99.90
18839;DHT22;9548;56.920;14.804;2023-01-31T01:10:31;0.70;99.90
18839;DHT22;9548;56.920;14.804;2023-01-31T01:12:58;0.70;99.90
18839;DHT22;9548;56.920;14.804;2023-01-31T01:15:25;0.70;99.90
18839;DHT22;9548;56.920;14.804;2023-01-31T01:17:52;0.70;99.90
18839;DHT22;9548;56.920;14.804;2023-01-31T01:20:20;0.60;99.90
18839;DHT22;9548;56.920;14.804;2023-01-31T01:22:47;0.60;99.90
18839;DHT22;9548;56.920;14.804;2023-01-31T01:25:15;0.70;99.90
18839;DHT22;9548;56.920;14.804;2023-01-31T01:27:42;0.70;99.90
18839;DHT22;9548;56.920;14.804;2023-01-31T01:30:10;0.60;99.90
18839;DHT22;9548;56.920;14.804;2023-01-31T01:32:37;0.60;99.90
18839;DHT22;9548;56.920;14.804;2023-01-31T01:35:04;0.60;99.90
18839;DHT22;9548;56.920;14.804;2023-01-31T01:37:32;0.60;99.90
18839;DHT22;9548;56.920;14.804;2023-01-31T01:39:59;0.50;99.90
18839;DHT22;9548;56.920;14.804;2023-01-31T01:42:33;0.50;99.90
18839;DHT22;9548;56.920;14.804;2023-01-31T01:45:01;0.50;99.90
18839;DHT22;9548;56.920;14.804;2023-01-31T01:47:34;0.50;99.90
18839;DHT22;9548;56.920;14.804;2023-01-31T01:50:08;0.50;99.90
18839;DHT22;9548;56.920;14.804;2023-01-31T01:52:39;0.40;99.90
18839;DHT22;9548;56.920;14.804;2023-01-31T01:55:13;0.40;99.90
18839;DHT22;9548;56.920;14.804;2023-01-31T01:57:43;0.30;99.90
18839;DHT22;9548;56.920;14.804;2023-01-31T02:00:14;0.40;99.90
18839;DHT22;9548;56.920;14.804;2023-01-31T02:02:45;0.40;99.90
18839;DHT22;9548;56.920;14.804;2023-01-31T02:05:15;0.40;99.90
18839;DHT22;9548;56.920;14.804;2023-01-31T02:07:43;0.50;99.90
18839;DHT22;9548;56.920;14.804;2023-01-31T02:10:13;0.40;99.90
18839;DHT22;9548;56.920;14.804;2023-01-31T02:12:43;0.40;99.90
18839;DHT22;9548;56.920;14.804;2023-01-31T02:15:10;0.30;99.90
18839;DHT22;9548;56.920;14.804;2023-01-31T02:17:37;0.30;99.90
18839;DHT22;9548;56.920;14.804;2023-01-31T02:20:20;0.30;99.90
18839;DHT22;9548;56.920;14.804;2023-01-31T02:23:00;0.30;99.90
18839;DHT22;9548;56.920;14.804;2023-01-31T02:25:48;0.20;99.90
18839;DHT22;9548;56.920;14.804;2023-01-31T02:28:41;0.20;99.90
18839;DHT22;9548;56.920;14.804;2023-01-31T02:31:42;0.20;99.90
18839;DHT22;9548;56.920;14.804;2023-01-31T02:34:18;0.20;99.90
18839;DHT22;9548;56.920;14.804;2023-01-31T02:36:57;0.10;99.90
18839;DHT22;9548;56.920;14.804;2023-01-31T02:39:30;0.10;99.90
18839;DHT22;9548;56.920;14.804;2023-01-31T02:42:05;0.00;99.90
18839;DHT22;9548;56.920;14.804;2023-01-31T02:44:42;0.00;99.90
18839;DHT22;9548;56.920;14.804;2023-01-31T02:47:34;0.00;99.90
18839;DHT22;9548;56.920;14.804;2023-01-31T02:50:11;-0.10;99.90
18839;DHT22;9548;56.920;14.804;2023-01-31T02:52:44;-0.10;99.90
18839;DHT22;9548;56.920;14.804;2023-01-31T02:55:15;-0.20;99.90
18839;DHT22;9548;56.920;14.804;2023-01-31T02:58:02;-0.20;99.90
18839;DHT22;9548;56.920;14.804;2023-01-31T03:00:33;-0.20;99.90
18839;DHT22;9548;56.920;14.804;2023-01-31T03:03:03;-0.10;99.90
18839;DHT22;9548;56.920;14.804;2023-01-31T03:05:32;-0.20;99.90
18839;DHT22;9548;56.920;14.804;2023-01-31T03:08:00;-0.20;99.90
18839;DHT22;9548;56.920;14.804;2023-01-31T03:10:51;-0.20;99.90
18839;DHT22;9548;56.920;14.804;2023-01-31T03:13:30;-0.30;99.90
18839;DHT22;9548;56.920;14.804;2023-01-31T03:16:05;-0.30;99.90
18839;DHT22;9548;56.920;14.804;2023-01-31T03:18:59;-0.30;99.90
18839;DHT22;9548;56.920;14.804;2023-01-31T03:21:31;-0.30;99.90
18839;DHT22;9548;56.920;14.804;2023-01-31T03:24:02;-0.30;99.90
18839;DHT22;9548;56.920;14.804;2023-01-31T03:26:31;-0.40;99.90
18839;DHT22;9548;56.920;14.804;2023-01-31T03:29:00;-0.40;99.90
18839;DHT22;9548;56.920;14.804;2023-01-31T03:31:31;-0.40;99.90
18839;DHT22;9548;56.920;14.804;2023-01-31T03:34:04;-0.40;99.90
18839;DHT22;9548;56.920;14.804;2023-01-31T03:36:38;-0.40;99.90
18839;DHT22;9548;56.920;14.804;2023-01-31T03:39:12;-0.40;99.90
18839;DHT22;9548;56.920;14.804;2023-01-31T03:41:48;-0.40;99.90
18839;DHT22;9548;56.920;14.804;2023-01-31T03:44:23;-0.50;99.90
18839;DHT22;9548;56.920;14.804;2023-01-31T03:46:55;-0.50;99.90
18839;DHT22;9548;56.920;14.804;2023-01-31T03:49:26;-0.60;99.90
18839;DHT22;9548;56.920;14.804;2023-01-31T03:51:58;-0.50;99.90
18839;DHT22;9548;56.920;14.804;2023-01-31T03:54:29;-0.60;99.90
18839;DHT22;9548;56.920;14.804;2023-01-31T03:57:01;-0.70;99.90
18839;DHT22;9548;56.920;14.804;2023-01-31T03:59:36;-0.80;99.90
18839;DHT22;9548;56.920;14.804;2023-01-31T04:02:06;-0.80;99.90
18839;DHT22;9548;56.920;14.804;2023-01-31T04:04:38;-0.90;99.90
18839;DHT22;9548;56.920;14.804;2023-01-31T04:07:07;-0.90;99.90
18839;DHT22;9548;56.920;14.804;2023-01-31T04:09:34;-0.90;99.90
18839;DHT22;9548;56.920;14.804;2023-01-31T04:12:03;-0.90;99.90
18839;DHT22;9548;56.920;14.804;2023-01-31T04:14:30;-0.90;99.90
18839;DHT22;9548;56.920;14.804;2023-01-31T04:16:57;-0.90;99.90
18839;DHT22;9548;56.920;14.804;2023-01-31T04:19:24;-0.90;99.90
18839;DHT22;9548;56.920;14.804;2023-01-31T04:21:51;-0.80;99.90
18839;DHT22;9548;56.920;14.804;2023-01-31T04:24:19;-0.70;99.90
18839;DHT22;9548;56.920;14.804;2023-01-31T04:26:46;-0.70;99.90
18839;DHT22;9548;56.920;14.804;2023-01-31T04:29:13;-0.70;99.90
18839;DHT22;9548;56.920;14.804;2023-01-31T04:31:40;-0.70;99.90
18839;DHT22;9548;56.920;14.804;2023-01-31T04:34:07;-0.70;99.90
18839;DHT22;9548;56.920;14.804;2023-01-31T04:36:34;-0.70;99.90
18839;DHT22;9548;56.920;14.804;2023-01-31T04:39:01;-0.70;99.90
18839;DHT22;9548;56.920;14.804;2023-01-31T04:41:29;-0.80;99.90
18839;DHT22;9548;56.920;14.804;2023-01-31T04:43:56;-0.80;99.90
18839;DHT22;9548;56.920;14.804;2023-01-31T04:46:23;-0.80;99.90
18839;DHT22;9548;56.920;14.804;2023-01-31T04:48:50;-0.80;99.90
18839;DHT22;9548;56.920;14.804;2023-01-31T04:51:17;-0.80;99.90
18839;DHT22;9548;56.920;14.804;2023-01-31T04:53:44;-0.80;99.90
18839;DHT22;9548;56.920;14.804;2023-01-31T04:56:11;-0.90;99.90
18839;DHT22;9548;56.920;14.804;2023-01-31T04:58:39;-0.80;99.90
18839;DHT22;9548;56.920;14.804;2023-01-31T05:01:08;-0.80;99.90
18839;DHT22;9548;56.920;14.804;2023-01-31T05:03:35;-0.90;99.90
18839;DHT22;9548;56.920;14.804;2023-01-31T05:06:02;-0.80;99.90
18839;DHT22;9548;56.920;14.804;2023-01-31T05:08:29;-0.90;99.90
18839;DHT22;9548;56.920;14.804;2023-01-31T05:10:57;-0.80;99.90
18839;DHT22;9548;56.920;14.804;2023-01-31T05:13:24;-0.80;99.90
18839;DHT22;9548;56.920;14.804;2023-01-31T05:15:52;-0.80;99.90
18839;DHT22;9548;56.920;14.804;2023-01-31T05:18:20;-0.80;99.90
18839;DHT22;9548;56.920;14.804;2023-01-31T05:20:47;-0.80;99.90
18839;DHT22;9548;56.920;14.804;2023-01-31T05:23:14;-0.80;99.90
18839;DHT22;9548;56.920;14.804;2023-01-31T05:25:41;-0.80;99.90
18839;DHT22;9548;56.920;14.804;2023-01-31T05:28:09;-0.90;99.90
18839;DHT22;9548;56.920;14.804;2023-01-31T05:30:36;-0.90;99.90
18839;DHT22;9548;56.920;14.804;2023-01-31T05:33:04;-0.90;99.90
18839;DHT22;9548;56.920;14.804;2023-01-31T05:35:31;-1.00;99.90
18839;DHT22;9548;56.920;14.804;2023-01-31T05:37:58;-1.00;99.90
18839;DHT22;9548;56.920;14.804;2023-01-31T05:40:25;-0.90;99.90
18839;DHT22;9548;56.920;14.804;2023-01-31T05:42:53;-0.80;99.90
18839;DHT22;9548;56.920;14.804;2023-01-31T05:45:21;-0.80;99.90
18839;DHT22;9548;56.920;14.804;2023-01-31T05:47:49;-0.80;99.90
18839;DHT22;9548;56.920;14.804;2023-01-31T05:50:18;-0.80;99.90
18839;DHT22;9548;56.920;14.804;2023-01-31T05:52:49;-0.70;99.90
18839;DHT22;9548;56.920;14.804;2023-01-31T05:55:16;-0.70;99.90
18839;DHT22;9548;56.920;14.804;2023-01-31T05:57:43;-0.70;99.90
18839;DHT22;9548;56.920;14.804;2023-01-31T06:00:10;-0.70;99.90
18839;DHT22;9548;56.920;14.804;2023-01-31T06:02:38;-0.60;99.90
18839;DHT22;9548;56.920;14.804;2023-01-31T06:05:07;-0.60;99.90
18839;DHT22;9548;56.920;14.804;2023-01-31T06:07:35;-0.60;99.90
18839;DHT22;9548;56.920;14.804;2023-01-31T06:10:04;-0.60;99.90
18839;DHT22;9548;56.920;14.804;2023-01-31T06:12:31;-0.60;99.90
18839;DHT22;9548;56.920;14.804;2023-01-31T06:14:58;-0.60;99.90
18839;DHT22;9548;56.920;14.804;2023-01-31T06:17:25;-0.60;99.90
18839;DHT22;9548;56.920;14.804;2023-01-31T06:19:52;-0.60;99.90
18839;DHT22;9548;56.920;14.804;2023-01-31T06:22:19;-0.60;99.90
18839;DHT22;9548;56.920;14.804;2023-01-31T06:24:47;-0.70;99.90
18839;DHT22;9548;56.920;14.804;2023-01-31T06:27:14;-0.70;99.90
18839;DHT22;9548;56.920;14.804;2023-01-31T06:29:41;-0.60;99.90
18839;DHT22;9548;56.920;14.804;2023-01-31T06:32:08;-0.60;99.90
18839;DHT22;9548;56.920;14.804;2023-01-31T06:34:35;-0.60;99.90
18839;DHT22;9548;56.920;14.804;2023-01-31T06:37:02;-0.50;99.90
18839;DHT22;9548;56.920;14.804;2023-01-31T06:39:29;-0.50;99.90
18839;DHT22;9548;56.920;14.804;2023-01-31T06:41:57;-0.50;99.90
18839;DHT22;9548;56.920;14.804;2023-01-31T06:44:24;-0.50;99.90
18839;DHT22;9548;56.920;14.804;2023-01-31T06:46:51;-0.40;99.90
18839;DHT22;9548;56.920;14.804;2023-01-31T06:49:18;-0.40;99.90
18839;DHT22;9548;56.920;14.804;2023-01-31T06:51:44;-0.40;99.90
18839;DHT22;9548;56.920;14.804;2023-01-31T06:54:11;-0.40;99.90
18839;DHT22;9548;56.920;14.804;2023-01-31T06:56:38;-0.40;99.90
18839;DHT22;9548;56.920;14.804;2023-01-31T06:59:06;-0.40;99.90
18839;DHT22;9548;56.920;14.804;2023-01-31T07:01:33;-0.40;99.90
18839;DHT22;9548;56.920;14.804;2023-01-31T07:04:00;-0.40;99.90
18839;DHT22;9548;56.920;14.804;2023-01-31T07:06:27;-0.50;99.90
18839;DHT22;9548;56.920;14.804;2023-01-31T07:08:54;-0.50;99.90
18839;DHT22;9548;56.920;14.804;2023-01-31T07:11:21;-0.60;99.90
18839;DHT22;9548;56.920;14.804;2023-01-31T07:13:47;-0.50;99.90
18839;DHT22;9548;56.920;14.804;2023-01-31T07:16:16;-0.60;99.90
18839;DHT22;9548;56.920;14.804;2023-01-31T07:18:44;-0.60;99.90
18839;DHT22;9548;56.920;14.804;2023-01-31T07:21:11;-0.60;99.90
18839;DHT22;9548;56.920;14.804;2023-01-31T07:23:38;-0.70;99.90
18839;DHT22;9548;56.920;14.804;2023-01-31T07:26:05;-0.70;99.90
18839;DHT22;9548;56.920;14.804;2023-01-31T07:28:32;-0.60;99.90
18839;DHT22;9548;56.920;14.804;2023-01-31T07:31:06;-0.60;99.90
18839;DHT22;9548;56.920;14.804;2023-01-31T07:33:37;-0.70;99.90
18839;DHT22;9548;56.920;14.804;2023-01-31T07:36:05;-0.60;99.90
18839;DHT22;9548;56.920;14.804;2023-01-31T07:38:33;-0.60;99.90
18839;DHT22;9548;56.920;14.804;2023-01-31T07:41:00;-0.60;99.90
18839;DHT22;9548;56.920;14.804;2023-01-31T07:43:29;-0.50;99.90
18839;DHT22;9548;56.920;14.804;2023-01-31T07:45:56;-0.50;99.90
18839;DHT22;9548;56.920;14.804;2023-01-31T07:48:23;-0.40;99.90
18839;DHT22;9548;56.920;14.804;2023-01-31T07:50:53;-0.40;99.90
18839;DHT22;9548;56.920;14.804;2023-01-31T07:53:23;-0.40;99.90
18839;DHT22;9548;56.920;14.804;2023-01-31T07:55:50;-0.30;99.90
18839;DHT22;9548;56.920;14.804;2023-01-31T07:58:17;-0.20;99.90
18839;DHT22;9548;56.920;14.804;2023-01-31T08:00:44;-0.10;99.90
18839;DHT22;9548;56.920;14.804;2023-01-31T08:03:29;-0.10;99.90
18839;DHT22;9548;56.920;14.804;2023-01-31T08:06:03;0.00;99.90
18839;DHT22;9548;56.920;14.804;2023-01-31T08:08:30;0.10;99.90
18839;DHT22;9548;56.920;14.804;2023-01-31T08:10:57;0.20;99.90
18839;DHT22;9548;56.920;14.804;2023-01-31T08:13:24;0.30;99.90
18839;DHT22;9548;56.920;14.804;2023-01-31T08:15:52;0.30;99.90
18839;DHT22;9548;56.920;14.804;2023-01-31T08:18:20;0.40;99.90
18839;DHT22;9548;56.920;14.804;2023-01-31T08:20:46;0.40;99.90
18839;DHT22;9548;56.920;14.804;2023-01-31T08:23:15;0.40;99.90
18839;DHT22;9548;56.920;14.804;2023-01-31T08:25:42;0.40;99.90
18839;DHT22;9548;56.920;14.804;2023-01-31T08:28:09;0.40;99.90
18839;DHT22;9548;56.920;14.804;2023-01-31T08:30:39;0.40;99.90
18839;DHT22;9548;56.920;14.804;2023-01-31T08:33:07;0.40;99.90
18839;DHT22;9548;56.920;14.804;2023-01-31T08:35:35;0.40;99.90
18839;DHT22;9548;56.920;14.804;2023-01-31T08:38:02;0.50;99.90
18839;DHT22;9548;56.920;14.804;2023-01-31T08:40:30;0.50;99.90
18839;DHT22;9548;56.920;14.804;2023-01-31T08:42:58;0.50;99.90
18839;DHT22;9548;56.920;14.804;2023-01-31T08:45:26;0.50;99.90
18839;DHT22;9548;56.920;14.804;2023-01-31T08:47:54;0.60;99.90
18839;DHT22;9548;56.920;14.804;2023-01-31T08:50:21;0.60;99.90
18839;DHT22;9548;56.920;14.804;2023-01-31T08:52:52;0.60;99.90
18839;DHT22;9548;56.920;14.804;2023-01-31T08:55:20;0.60;99.90
18839;DHT22;9548;56.920;14.804;2023-01-31T08:57:50;0.70;99.90
18839;DHT22;9548;56.920;14.804;2023-01-31T09:00:18;0.70;99.90
18839;DHT22;9548;56.920;14.804;2023-01-31T09:02:50;0.70;99.90
18839;DHT22;9548;56.920;14.804;2023-01-31T09:05:17;0.70;99.90
18839;DHT22;9548;56.920;14.804;2023-01-31T09:07:44;0.70;99.90
18839;DHT22;9548;56.920;14.804;2023-01-31T09:10:11;0.80;99.90
18839;DHT22;9548;56.920;14.804;2023-01-31T09:12:37;0.80;99.90
18839;DHT22;9548;56.920;14.804;2023-01-31T09:15:07;0.80;99.90
18839;DHT22;9548;56.920;14.804;2023-01-31T09:17:34;1.00;99.90
18839;DHT22;9548;56.920;14.804;2023-01-31T09:20:01;1.00;99.90
18839;DHT22;9548;56.920;14.804;2023-01-31T09:22:31;1.20;99.90
18839;DHT22;9548;56.920;14.804;2023-01-31T09:24:59;1.20;99.90
18839;DHT22;9548;56.920;14.804;2023-01-31T09:27:26;1.20;99.90
18839;DHT22;9548;56.920;14.804;2023-01-31T09:29:53;1.20;99.90
18839;DHT22;9548;56.920;14.804;2023-01-31T09:32:21;1.20;99.90
18839;DHT22;9548;56.920;14.804;2023-01-31T09:34:48;1.20;99.90
18839;DHT22;9548;56.920;14.804;2023-01-31T09:37:16;1.20;99.90
18839;DHT22;9548;56.920;14.804;2023-01-31T09:39:43;1.30;99.90
18839;DHT22;9548;56.920;14.804;2023-01-31T09:42:18;1.40;99.90
18839;DHT22;9548;56.920;14.804;2023-01-31T09:44:58;1.50;99.90
18839;DHT22;9548;56.920;14.804;2023-01-31T09:47:29;1.50;99.90
18839;DHT22;9548;56.920;14.804;2023-01-31T09:50:00;1.50;99.90
18839;DHT22;9548;56.920;14.804;2023-01-31T09:52:30;1.60;99.90
18839;DHT22;9548;56.920;14.804;2023-01-31T09:54:57;1.90;99.90
18839;DHT22;9548;56.920;14.804;2023-01-31T09:57:33;2.40;99.90
18839;DHT22;9548;56.920;14.804;2023-01-31T10:00:17;2.70;99.90
18839;DHT22;9548;56.920;14.804;2023-01-31T10:05:49;4.00;99.90
18839;DHT22;9548;56.920;14.804;2023-01-31T10:08:25;4.40;99.90
18839;DHT22;9548;56.920;14.804;2023-01-31T10:10:57;4.80;99.90
18839;DHT22;9548;56.920;14.804;2023-01-31T10:13:28;4.60;99.90
18839;DHT22;9548;56.920;14.804;2023-01-31T10:16:02;4.40;99.90
18839;DHT22;9548;56.920;14.804;2023-01-31T10:18:34;4.20;99.90
18839;DHT22;9548;56.920;14.804;2023-01-31T10:21:07;4.30;99.90
18839;DHT22;9548;56.920;14.804;2023-01-31T10:23:40;4.60;99.90
18839;DHT22;9548;56.920;14.804;2023-01-31T10:26:11;4.70;99.90
18839;DHT22;9548;56.920;14.804;2023-01-31T10:28:41;5.10;99.90
18839;DHT22;9548;56.920;14.804;2023-01-31T10:31:24;5.30;99.90
18839;DHT22;9548;56.920;14.804;2023-01-31T10:33:56;5.10;99.90
18839;DHT22;9548;56.920;14.804;2023-01-31T10:36:31;5.20;99.90
18839;DHT22;9548;56.920;14.804;2023-01-31T10:39:03;5.20;99.90
18839;DHT22;9548;56.920;14.804;2023-01-31T10:41:40;5.20;99.90
18839;DHT22;9548;56.920;14.804;2023-01-31T10:44:18;5.10;99.90
18839;DHT22;9548;56.920;14.804;2023-01-31T10:46:46;4.80;99.90
18839;DHT22;9548;56.920;14.804;2023-01-31T10:49:13;4.60;99.90
18839;DHT22;9548;56.920;14.804;2023-01-31T10:51:55;4.40;99.90
18839;DHT22;9548;56.920;14.804;2023-01-31T10:54:37;4.40;99.90
18839;DHT22;9548;56.920;14.804;2023-01-31T10:57:08;4.40;99.90
18839;DHT22;9548;56.920;14.804;2023-01-31T10:59:37;4.40;99.90
18839;DHT22;9548;56.920;14.804;2023-01-31T11:02:17;4.20;99.90
18839;DHT22;9548;56.920;14.804;2023-01-31T11:04:44;3.90;99.90
18839;DHT22;9548;56.920;14.804;2023-01-31T11:07:13;3.80;99.90
18839;DHT22;9548;56.920;14.804;2023-01-31T11:09:42;3.70;99.90
18839;DHT22;9548;56.920;14.804;2023-01-31T11:12:12;3.70;99.90
18839;DHT22;9548;56.920;14.804;2023-01-31T11:14:39;3.50;99.90
18839;DHT22;9548;56.920;14.804;2023-01-31T11:17:12;3.40;99.90
18839;DHT22;9548;56.920;14.804;2023-01-31T11:19:44;3.30;99.90
18839;DHT22;9548;56.920;14.804;2023-01-31T11:22:21;3.30;99.90
18839;DHT22;9548;56.920;14.804;2023-01-31T11:24:49;3.20;99.90
18839;DHT22;9548;56.920;14.804;2023-01-31T11:27:23;3.20;99.90
18839;DHT22;9548;56.920;14.804;2023-01-31T11:29:51;3.10;99.90
18839;DHT22;9548;56.920;14.804;2023-01-31T11:32:22;3.10;99.90
18839;DHT22;9548;56.920;14.804;2023-01-31T11:34:58;3.10;99.90
18839;DHT22;9548;56.920;14.804;2023-01-31T11:37:27;3.10;99.90
18839;DHT22;9548;56.920;14.804;2023-01-31T11:39:56;3.10;99.90
18839;DHT22;9548;56.920;14.804;2023-01-31T11:42:24;3.20;99.90
18839;DHT22;9548;56.920;14.804;2023-01-31T11:44:55;3.20;99.90
18839;DHT22;9548;56.920;14.804;2023-01-31T11:47:27;3.30;99.90
18839;DHT22;9548;56.920;14.804;2023-01-31T11:49:56;3.30;99.90
18839;DHT22;9548;56.920;14.804;2023-01-31T11:52:30;3.20;99.90
18839;DHT22;9548;56.920;14.804;2023-01-31T11:54:59;3.00;99.90
18839;DHT22;9548;56.920;14.804;2023-01-31T11:57:30;3.00;99.90
18839;DHT22;9548;56.920;14.804;2023-01-31T11:59:59;2.80;99.90
18839;DHT22;9548;56.920;14.804;2023-01-31T12:02:34;2.70;99.90
18839;DHT22;9548;56.920;14.804;2023-01-31T12:05:07;2.70;99.90
18839;DHT22;9548;56.920;14.804;2023-01-31T12:07:44;2.70;99.90
18839;DHT22;9548;56.920;14.804;2023-01-31T12:10:27;2.70;99.90
18839;DHT22;9548;56.920;14.804;2023-01-31T12:12:58;2.80;99.90
18839;DHT22;9548;56.920;14.804;2023-01-31T12:15:27;2.80;99.90
18839;DHT22;9548;56.920;14.804;2023-01-31T12:17:55;2.80;99.90
18839;DHT22;9548;56.920;14.804;2023-01-31T12:20:31;2.90;99.90
18839;DHT22;9548;56.920;14.804;2023-01-31T12:23:13;2.90;99.90
18839;DHT22;9548;56.920;14.804;2023-01-31T12:25:53;2.90;99.90
18839;DHT22;9548;56.920;14.804;2023-01-31T12:28:36;2.90;99.90
18839;DHT22;9548;56.920;14.804;2023-01-31T12:31:38;3.00;99.90
18839;DHT22;9548;56.920;14.804;2023-01-31T12:34:18;3.00;99.90
18839;DHT22;9548;56.920;14.804;2023-01-31T12:37:08;2.90;99.90
18839;DHT22;9548;56.920;14.804;2023-01-31T12:39:51;2.90;99.90
18839;DHT22;9548;56.920;14.804;2023-01-31T12:42:33;2.90;99.90
18839;DHT22;9548;56.920;14.804;2023-01-31T12:45:16;3.00;99.90
18839;DHT22;9548;56.920;14.804;2023-01-31T12:48:26;3.00;99.90
18839;DHT22;9548;56.920;14.804;2023-01-31T12:51:02;3.00;99.90
18839;DHT22;9548;56.920;14.804;2023-01-31T12:53:52;3.00;99.90
18839;DHT22;9548;56.920;14.804;2023-01-31T12:56:35;3.00;99.90
18839;DHT22;9548;56.920;14.804;2023-01-31T12:59:13;3.00;99.90
18839;DHT22;9548;56.920;14.804;2023-01-31T13:01:49;2.90;99.90
18839;DHT22;9548;56.920;14.804;2023-01-31T13:04:29;2.90;99.90
18839;DHT22;9548;56.920;14.804;2023-01-31T13:06:58;2.90;99.90
18839;DHT22;9548;56.920;14.804;2023-01-31T13:09:27;2.90;99.90
18839;DHT22;9548;56.920;14.804;2023-01-31T13:12:01;3.00;99.90
18839;DHT22;9548;56.920;14.804;2023-01-31T13:14:32;3.10;99.90
18839;DHT22;9548;56.920;14.804;2023-01-31T13:17:03;3.10;99.90
18839;DHT22;9548;56.920;14.804;2023-01-31T13:19:33;3.20;99.90
18839;DHT22;9548;56.920;14.804;2023-01-31T13:22:07;3.10;99.90
18839;DHT22;9548;56.920;14.804;2023-01-31T13:24:38;3.20;99.90
18839;DHT22;9548;56.920;14.804;2023-01-31T13:27:14;3.20;99.90
18839;DHT22;9548;56.920;14.804;2023-01-31T13:29:44;3.10;99.90
18839;DHT22;9548;56.920;14.804;2023-01-31T13:32:17;3.10;99.90
18839;DHT22;9548;56.920;14.804;2023-01-31T13:34:50;3.10;99.90
18839;DHT22;9548;56.920;14.804;2023-01-31T13:37:18;3.10;99.90
18839;DHT22;9548;56.920;14.804;2023-01-31T13:39:48;3.10;99.90
18839;DHT22;9548;56.920;14.804;2023-01-31T13:42:18;3.20;99.90
18839;DHT22;9548;56.920;14.804;2023-01-31T13:44:46;3.20;99.90
18839;DHT22;9548;56.920;14.804;2023-01-31T13:47:16;3.20;99.90
18839;DHT22;9548;56.920;14.804;2023-01-31T13:49:49;3.20;99.90
18839;DHT22;9548;56.920;14.804;2023-01-31T13:52:22;3.20;99.90
18839;DHT22;9548;56.920;14.804;2023-01-31T13:54:53;3.20;99.90
18839;DHT22;9548;56.920;14.804;2023-01-31T13:57:25;3.20;99.90
18839;DHT22;9548;56.920;14.804;2023-01-31T13:59:54;3.20;99.90
18839;DHT22;9548;56.920;14.804;2023-01-31T14:02:22;3.10;99.90
18839;DHT22;9548;56.920;14.804;2023-01-31T14:04:49;3.00;99.90
18839;DHT22;9548;56.920;14.804;2023-01-31T14:07:23;2.90;99.90
18839;DHT22;9548;56.920;14.804;2023-01-31T14:10:25;2.90;99.90
18839;DHT22;9548;56.920;14.804;2023-01-31T14:13:25;2.80;99.90
18839;DHT22;9548;56.920;14.804;2023-01-31T14:15:54;2.80;99.90
18839;DHT22;9548;56.920;14.804;2023-01-31T14:18:39;2.70;99.90
18839;DHT22;9548;56.920;14.804;2023-01-31T14:27:27;2.50;99.90
18839;DHT22;9548;56.920;14.804;2023-01-31T14:30:07;2.40;99.90
18839;DHT22;9548;56.920;14.804;2023-01-31T14:32:38;2.40;99.90
18839;DHT22;9548;56.920;14.804;2023-01-31T14:35:29;2.40;99.90
18839;DHT22;9548;56.920;14.804;2023-01-31T14:38:06;2.40;99.90
18839;DHT22;9548;56.920;14.804;2023-01-31T14:40:40;2.30;99.90
18839;DHT22;9548;56.920;14.804;2023-01-31T14:43:27;2.30;99.90
18839;DHT22;9548;56.920;14.804;2023-01-31T14:46:11;2.30;99.90
18839;DHT22;9548;56.920;14.804;2023-01-31T14:52:06;2.20;99.90
18839;DHT22;9548;56.920;14.804;2023-01-31T14:54:56;2.20;99.90
18839;DHT22;9548;56.920;14.804;2023-01-31T14:57:28;2.20;99.90
18839;DHT22;9548;56.920;14.804;2023-01-31T15:00:14;2.10;99.90
18839;DHT22;9548;56.920;14.804;2023-01-31T15:02:48;2.10;99.90
18839;DHT22;9548;56.920;14.804;2023-01-31T15:05:18;2.10;99.90
18839;DHT22;9548;56.920;14.804;2023-01-31T15:07:59;2.00;99.90
18839;DHT22;9548;56.920;14.804;2023-01-31T15:10:58;2.00;99.90
18839;DHT22;9548;56.920;14.804;2023-01-31T15:13:40;1.90;99.90
18839;DHT22;9548;56.920;14.804;2023-01-31T15:16:17;1.90;99.90
18839;DHT22;9548;56.920;14.804;2023-01-31T15:18:46;1.80;99.90
18839;DHT22;9548;56.920;14.804;2023-01-31T15:21:21;1.90;99.90
18839;DHT22;9548;56.920;14.804;2023-01-31T15:23:49;1.80;99.90
18839;DHT22;9548;56.920;14.804;2023-01-31T15:26:17;1.80;99.90
18839;DHT22;9548;56.920;14.804;2023-01-31T15:28:45;1.80;99.90
18839;DHT22;9548;56.920;14.804;2023-01-31T15:31:18;1.80;99.90
18839;DHT22;9548;56.920;14.804;2023-01-31T15:33:49;1.80;99.90
18839;DHT22;9548;56.920;14.804;2023-01-31T15:36:22;1.80;99.90
18839;DHT22;9548;56.920;14.804;2023-01-31T15:38:53;1.70;99.90
18839;DHT22;9548;56.920;14.804;2023-01-31T15:41:23;1.80;99.90
18839;DHT22;9548;56.920;14.804;2023-01-31T15:43:51;1.70;99.90
18839;DHT22;9548;56.920;14.804;2023-01-31T15:46:23;1.70;99.90
18839;DHT22;9548;56.920;14.804;2023-01-31T15:48:50;1.80;99.90
18839;DHT22;9548;56.920;14.804;2023-01-31T15:51:18;1.70;99.90
18839;DHT22;9548;56.920;14.804;2023-01-31T15:53:45;1.80;99.90
18839;DHT22;9548;56.920;14.804;2023-01-31T15:56:17;1.70;99.90
18839;DHT22;9548;56.920;14.804;2023-01-31T15:58:46;1.70;99.90
18839;DHT22;9548;56.920;14.804;2023-01-31T16:01:15;1.70;99.90
18839;DHT22;9548;56.920;14.804;2023-01-31T16:03:50;1.60;99.90
18839;DHT22;9548;56.920;14.804;2023-01-31T16:06:22;1.70;99.90
18839;DHT22;9548;56.920;14.804;2023-01-31T16:08:52;1.70;99.90
18839;DHT22;9548;56.920;14.804;2023-01-31T16:11:19;1.70;99.90
18839;DHT22;9548;56.920;14.804;2023-01-31T16:13:48;1.70;99.90
18839;DHT22;9548;56.920;14.804;2023-01-31T16:16:15;1.70;99.90
18839;DHT22;9548;56.920;14.804;2023-01-31T16:18:48;1.70;99.90